sensor_id;sensor_type;location;lat;lon;timestamp;temperature;humidity
6333;DHT22;3199;49.102;8.856;2023-04-15T00:01:08;5.40;99.90
6333;DHT22;3199;49.102;8.856;2023-04-15T00:03:34;5.30;99.90
6333;DHT22;3199;49.102;8.856;2023-04-15T00:06:00;5.30;99.90
6333;DHT22;3199;49.102;8.856;2023-04-15T00:08:26;5.20;99.90
6333;DHT22;3199;49.102;8.856;2023-04-15T00:10:52;5.20;99.90
6333;DHT22;3199;49.102;8.856;2023-04-15T00:13:17;5.10;99.90
6333;DHT22;3199;49.102;8.856;2023-04-15T00:15:43;5.10;99.90
6333;DHT22;3199;49.102;8.856;2023-04-15T00:18:09;5.10;99.90
6333;DHT22;3199;49.102;8.856;2023-04-15T00:20:34;5.10;99.90
6333;DHT22;3199;49.102;8.856;2023-04-15T00:23:01;5.10;99.90
6333;DHT22;3199;49.102;8.856;2023-04-15T00:25:28;5.00;99.90
6333;DHT22;3199;49.102;8.856;2023-04-15T00:27:53;5.00;99.90
6333;DHT22;3199;49.102;8.856;2023-04-15T00:30:19;5.00;99.90
6333;DHT22;3199;49.102;8.856;2023-04-15T00:32:44;5.00;99.90
6333;DHT22;3199;49.102;8.856;2023-04-15T00:35:11;5.00;99.90
6333;DHT22;3199;49.102;8.856;2023-04-15T00:37:36;5.00;99.90
6333;DHT22;3199;49.102;8.856;2023-04-15T00:40:02;5.00;99.90
6333;DHT22;3199;49.102;8.856;2023-04-15T00:42:30;5.00;99.90
6333;DHT22;3199;49.102;8.856;2023-04-15T00:44:56;4.90;99.90
6333;DHT22;3199;49.102;8.856;2023-04-15T00:47:22;4.90;99.90
6333;DHT22;3199;49.102;8.856;2023-04-15T00:49:47;4.90;99.90
6333;DHT22;3199;49.102;8.856;2023-04-15T00:52:13;4.80;99.90
6333;DHT22;3199;49.102;8.856;2023-04-15T00:54:39;4.80;99.90
6333;DHT22;3199;49.102;8.856;2023-04-15T00:57:05;4.80;99.90
6333;DHT22;3199;49.102;8.856;2023-04-15T00:59:32;4.80;99.90
6333;DHT22;3199;49.102;8.856;2023-04-15T01:01:59;4.80;99.90
6333;DHT22;3199;49.102;8.856;2023-04-15T01:04:24;4.80;99.90
6333;DHT22;3199;49.102;8.856;2023-04-15T01:06:50;4.80;99.90
6333;DHT22;3199;49.102;8.856;2023-04-15T01:09:16;4.70;99.90
6333;DHT22;3199;49.102;8.856;2023-04-15T01:11:42;4.70;99.90
6333;DHT22;3199;49.102;8.856;2023-04-15T01:14:09;4.70;99.90
6333;DHT22;3199;49.102;8.856;2023-04-15T01:16:36;4.70;99.90
6333;DHT22;3199;49.102;8.856;2023-04-15T01:19:07;4.70;99.90
6333;DHT22;3199;49.102;8.856;2023-04-15T01:21:36;4.70;99.90
6333;DHT22;3199;49.102;8.856;2023-04-15T01:24:04;4.70;99.90
6333;DHT22;3199;49.102;8.856;2023-04-15T01:26:33;4.60;99.90
6333;DHT22;3199;49.102;8.856;2023-04-15T01:28:58;4.60;99.90
6333;DHT22;3199;49.102;8.856;2023-04-15T01:31:24;4.60;99.90
6333;DHT22;3199;49.102;8.856;2023-04-15T01:33:50;4.50;99.90
6333;DHT22;3199;49.102;8.856;2023-04-15T01:36:15;4.50;99.90
6333;DHT22;3199;49.102;8.856;2023-04-15T01:38:41;4.50;99.90
6333;DHT22;3199;49.102;8.856;2023-04-15T01:41:06;4.50;99.90
6333;DHT22;3199;49.102;8.856;2023-04-15T01:43:33;4.40;99.90
6333;DHT22;3199;49.102;8.856;2023-04-15T01:45:59;4.40;99.90
6333;DHT22;3199;49.102;8.856;2023-04-15T01:48:24;4.40;99.90
6333;DHT22;3199;49.102;8.856;2023-04-15T01:50:53;4.30;99.90
6333;DHT22;3199;49.102;8.856;2023-04-15T01:53:18;4.30;99.90
6333;DHT22;3199;49.102;8.856;2023-04-15T01:55:44;4.30;99.90
6333;DHT22;3199;49.102;8.856;2023-04-15T01:58:10;4.30;99.90
6333;DHT22;3199;49.102;8.856;2023-04-15T02:00:36;4.30;99.90
6333;DHT22;3199;49.102;8.856;2023-04-15T02:03:01;4.30;99.90
6333;DHT22;3199;49.102;8.856;2023-04-15T02:05:27;4.30;99.90
6333;DHT22;3199;49.102;8.856;2023-04-15T02:07:53;4.30;99.90
6333;DHT22;3199;49.102;8.856;2023-04-15T02:10:18;4.30;99.90
6333;DHT22;3199;49.102;8.856;2023-04-15T02:12:44;4.30;99.90
6333;DHT22;3199;49.102;8.856;2023-04-15T02:15:10;4.30;99.90
6333;DHT22;3199;49.102;8.856;2023-04-15T02:17:36;4.30;99.90
6333;DHT22;3199;49.102;8.856;2023-04-15T02:20:02;4.20;99.90
6333;DHT22;3199;49.102;8.856;2023-04-15T02:22:30;4.20;99.90
6333;DHT22;3199;49.102;8.856;2023-04-15T02:24:55;4.20;99.90
6333;DHT22;3199;49.102;8.856;2023-04-15T02:27:21;4.20;99.90
6333;DHT22;3199;49.102;8.856;2023-04-15T02:29:47;4.10;99.90
6333;DHT22;3199;49.102;8.856;2023-04-15T02:32:12;4.10;99.90
6333;DHT22;3199;49.102;8.856;2023-04-15T02:34:39;4.00;99.90
6333;DHT22;3199;49.102;8.856;2023-04-15T02:37:08;4.00;99.90
6333;DHT22;3199;49.102;8.856;2023-04-15T02:39:34;4.00;99.90
6333;DHT22;3199;49.102;8.856;2023-04-15T02:41:59;3.90;99.90
6333;DHT22;3199;49.102;8.856;2023-04-15T02:44:26;3.90;99.90
6333;DHT22;3199;49.102;8.856;2023-04-15T02:46:52;3.90;99.90
6333;DHT22;3199;49.102;8.856;2023-04-15T02:49:19;3.90;99.90
6333;DHT22;3199;49.102;8.856;2023-04-15T02:51:45;3.90;99.90
6333;DHT22;3199;49.102;8.856;2023-04-15T02:54:21;3.90;99.90
6333;DHT22;3199;49.102;8.856;2023-04-15T02:56:49;3.90;99.90
6333;DHT22;3199;49.102;8.856;2023-04-15T02:59:15;3.90;99.90
6333;DHT22;3199;49.102;8.856;2023-04-15T03:01:41;3.80;99.90
6333;DHT22;3199;49.102;8.856;2023-04-15T03:04:06;3.80;99.90
6333;DHT22;3199;49.102;8.856;2023-04-15T03:06:33;3.80;99.90
6333;DHT22;3199;49.102;8.856;2023-04-15T03:08:59;3.80;99.90
6333;DHT22;3199;49.102;8.856;2023-04-15T03:11:25;3.80;99.90
6333;DHT22;3199;49.102;8.856;2023-04-15T03:13:51;3.80;99.90
6333;DHT22;3199;49.102;8.856;2023-04-15T03:16:17;3.80;99.90
6333;DHT22;3199;49.102;8.856;2023-04-15T03:18:42;3.80;99.90
6333;DHT22;3199;49.102;8.856;2023-04-15T03:21:08;3.80;99.90
6333;DHT22;3199;49.102;8.856;2023-04-15T03:23:33;3.80;99.90
6333;DHT22;3199;49.102;8.856;2023-04-15T03:26:03;3.90;99.90
6333;DHT22;3199;49.102;8.856;2023-04-15T03:28:29;3.90;99.90
6333;DHT22;3199;49.102;8.856;2023-04-15T03:30:55;3.90;99.90
6333;DHT22;3199;49.102;8.856;2023-04-15T03:33:20;3.90;99.90
6333;DHT22;3199;49.102;8.856;2023-04-15T03:35:46;3.80;99.90
6333;DHT22;3199;49.102;8.856;2023-04-15T03:38:11;3.90;99.90
6333;DHT22;3199;49.102;8.856;2023-04-15T03:40:39;3.90;99.90
6333;DHT22;3199;49.102;8.856;2023-04-15T03:43:05;3.90;99.90
6333;DHT22;3199;49.102;8.856;2023-04-15T03:45:31;3.80;99.90
6333;DHT22;3199;49.102;8.856;2023-04-15T03:47:56;3.80;99.90
6333;DHT22;3199;49.102;8.856;2023-04-15T03:50:22;3.80;99.90
6333;DHT22;3199;49.102;8.856;2023-04-15T03:52:47;3.80;99.90
6333;DHT22;3199;49.102;8.856;2023-04-15T03:55:13;3.80;99.90
6333;DHT22;3199;49.102;8.856;2023-04-15T03:57:39;3.80;99.90
6333;DHT22;3199;49.102;8.856;2023-04-15T04:00:07;3.80;99.90
6333;DHT22;3199;49.102;8.856;2023-04-15T04:02:33;3.80;99.90
6333;DHT22;3199;49.102;8.856;2023-04-15T04:04:59;3.80;99.90
6333;DHT22;3199;49.102;8.856;2023-04-15T04:07:25;3.80;99.90
6333;DHT22;3199;49.102;8.856;2023-04-15T04:09:50;3.80;99.90
6333;DHT22;3199;49.102;8.856;2023-04-15T04:12:16;3.80;99.90
6333;DHT22;3199;49.102;8.856;2023-04-15T04:14:41;3.80;99.90
6333;DHT22;3199;49.102;8.856;2023-04-15T04:17:07;3.70;99.90
6333;DHT22;3199;49.102;8.856;2023-04-15T04:19:33;3.70;99.90
6333;DHT22;3199;49.102;8.856;2023-04-15T04:21:59;3.70;99.90
6333;DHT22;3199;49.102;8.856;2023-04-15T04:24:24;3.60;99.90
6333;DHT22;3199;49.102;8.856;2023-04-15T04:26:50;3.50;99.90
6333;DHT22;3199;49.102;8.856;2023-04-15T04:29:16;3.50;99.90
6333;DHT22;3199;49.102;8.856;2023-04-15T04:31:41;3.40;99.90
6333;DHT22;3199;49.102;8.856;2023-04-15T04:34:07;3.40;99.90
6333;DHT22;3199;49.102;8.856;2023-04-15T04:36:32;3.40;99.90
6333;DHT22;3199;49.102;8.856;2023-04-15T04:38:58;3.40;99.90
6333;DHT22;3199;49.102;8.856;2023-04-15T04:41:23;3.40;99.90
6333;DHT22;3199;49.102;8.856;2023-04-15T04:43:49;3.40;99.90
6333;DHT22;3199;49.102;8.856;2023-04-15T04:46:14;3.40;99.90
6333;DHT22;3199;49.102;8.856;2023-04-15T04:48:40;3.30;99.90
6333;DHT22;3199;49.102;8.856;2023-04-15T04:51:06;3.30;99.90
6333;DHT22;3199;49.102;8.856;2023-04-15T04:53:32;3.30;99.90
6333;DHT22;3199;49.102;8.856;2023-04-15T04:55:58;3.40;99.90
6333;DHT22;3199;49.102;8.856;2023-04-15T04:58:23;3.30;99.90
6333;DHT22;3199;49.102;8.856;2023-04-15T05:00:49;3.30;99.90
6333;DHT22;3199;49.102;8.856;2023-04-15T05:03:14;3.30;99.90
6333;DHT22;3199;49.102;8.856;2023-04-15T05:05:40;3.30;99.90
6333;DHT22;3199;49.102;8.856;2023-04-15T05:08:06;3.30;99.90
6333;DHT22;3199;49.102;8.856;2023-04-15T05:10:32;3.40;99.90
6333;DHT22;3199;49.102;8.856;2023-04-15T05:12:57;3.40;99.90
6333;DHT22;3199;49.102;8.856;2023-04-15T05:15:23;3.40;99.90
6333;DHT22;3199;49.102;8.856;2023-04-15T05:17:48;3.50;99.90
6333;DHT22;3199;49.102;8.856;2023-04-15T05:20:14;3.50;99.90
6333;DHT22;3199;49.102;8.856;2023-04-15T05:22:40;3.60;99.90
6333;DHT22;3199;49.102;8.856;2023-04-15T05:25:05;3.60;99.90
6333;DHT22;3199;49.102;8.856;2023-04-15T05:27:31;3.70;99.90
6333;DHT22;3199;49.102;8.856;2023-04-15T05:29:57;3.80;99.90
6333;DHT22;3199;49.102;8.856;2023-04-15T05:32:22;3.80;99.90
6333;DHT22;3199;49.102;8.856;2023-04-15T05:34:48;3.90;99.90
6333;DHT22;3199;49.102;8.856;2023-04-15T05:37:13;4.00;99.90
6333;DHT22;3199;49.102;8.856;2023-04-15T05:39:39;4.10;99.90
6333;DHT22;3199;49.102;8.856;2023-04-15T05:42:04;4.20;99.90
6333;DHT22;3199;49.102;8.856;2023-04-15T05:44:30;4.30;99.90
6333;DHT22;3199;49.102;8.856;2023-04-15T05:46:56;4.50;99.90
6333;DHT22;3199;49.102;8.856;2023-04-15T05:49:22;4.70;99.90
6333;DHT22;3199;49.102;8.856;2023-04-15T05:51:47;4.90;99.90
6333;DHT22;3199;49.102;8.856;2023-04-15T05:54:13;5.10;99.90
6333;DHT22;3199;49.102;8.856;2023-04-15T05:56:39;5.40;99.90
6333;DHT22;3199;49.102;8.856;2023-04-15T05:59:04;5.60;99.90
6333;DHT22;3199;49.102;8.856;2023-04-15T06:01:31;5.90;99.90
6333;DHT22;3199;49.102;8.856;2023-04-15T06:03:57;6.30;99.90
6333;DHT22;3199;49.102;8.856;2023-04-15T06:06:22;6.70;99.90
6333;DHT22;3199;49.102;8.856;2023-04-15T06:08:48;7.10;99.90
6333;DHT22;3199;49.102;8.856;2023-04-15T06:11:14;7.30;99.90
6333;DHT22;3199;49.102;8.856;2023-04-15T06:13:39;7.50;99.90
6333;DHT22;3199;49.102;8.856;2023-04-15T06:16:05;7.80;99.90
6333;DHT22;3199;49.102;8.856;2023-04-15T06:18:32;8.10;99.90
6333;DHT22;3199;49.102;8.856;2023-04-15T06:20:57;8.50;99.90
6333;DHT22;3199;49.102;8.856;2023-04-15T06:23:23;8.90;99.90
6333;DHT22;3199;49.102;8.856;2023-04-15T06:25:48;9.40;99.90
6333;DHT22;3199;49.102;8.856;2023-04-15T06:28:14;9.80;99.90
6333;DHT22;3199;49.102;8.856;2023-04-15T06:30:39;10.30;99.90
6333;DHT22;3199;49.102;8.856;2023-04-15T06:33:05;10.60;99.90
6333;DHT22;3199;49.102;8.856;2023-04-15T06:35:31;10.90;99.70
6333;DHT22;3199;49.102;8.856;2023-04-15T06:37:57;11.20;99.70
6333;DHT22;3199;49.102;8.856;2023-04-15T06:40:22;11.70;99.20
6333;DHT22;3199;49.102;8.856;2023-04-15T06:42:48;12.20;98.00
6333;DHT22;3199;49.102;8.856;2023-04-15T06:45:13;12.80;96.80
6333;DHT22;3199;49.102;8.856;2023-04-15T06:47:39;13.20;95.90
6333;DHT22;3199;49.102;8.856;2023-04-15T06:50:06;13.50;94.80
6333;DHT22;3199;49.102;8.856;2023-04-15T06:52:31;13.90;94.40
6333;DHT22;3199;49.102;8.856;2023-04-15T06:54:57;14.20;93.20
6333;DHT22;3199;49.102;8.856;2023-04-15T06:57:23;14.40;92.10
6333;DHT22;3199;49.102;8.856;2023-04-15T06:59:49;14.50;91.30
6333;DHT22;3199;49.102;8.856;2023-04-15T07:02:16;14.90;91.10
6333;DHT22;3199;49.102;8.856;2023-04-15T07:04:42;15.50;87.80
6333;DHT22;3199;49.102;8.856;2023-04-15T07:07:08;16.00;85.10
6333;DHT22;3199;49.102;8.856;2023-04-15T07:09:33;16.40;83.20
6333;DHT22;3199;49.102;8.856;2023-04-15T07:11:59;16.60;80.90
6333;DHT22;3199;49.102;8.856;2023-04-15T07:14:24;17.00;78.70
6333;DHT22;3199;49.102;8.856;2023-04-15T07:16:50;17.60;76.50
6333;DHT22;3199;49.102;8.856;2023-04-15T07:19:15;18.10;74.40
6333;DHT22;3199;49.102;8.856;2023-04-15T07:21:41;18.60;70.70
6333;DHT22;3199;49.102;8.856;2023-04-15T07:24:07;19.10;69.60
6333;DHT22;3199;49.102;8.856;2023-04-15T07:26:34;19.70;66.10
6333;DHT22;3199;49.102;8.856;2023-04-15T07:29:00;19.90;64.10
6333;DHT22;3199;49.102;8.856;2023-04-15T07:31:26;20.40;62.80
6333;DHT22;3199;49.102;8.856;2023-04-15T07:33:52;20.90;59.90
6333;DHT22;3199;49.102;8.856;2023-04-15T07:36:18;21.30;58.00
6333;DHT22;3199;49.102;8.856;2023-04-15T07:38:43;21.30;57.00
6333;DHT22;3199;49.102;8.856;2023-04-15T07:41:09;21.20;57.10
6333;DHT22;3199;49.102;8.856;2023-04-15T07:43:35;21.10;55.80
6333;DHT22;3199;49.102;8.856;2023-04-15T07:46:00;20.40;55.80
6333;DHT22;3199;49.102;8.856;2023-04-15T07:48:26;19.80;56.80
6333;DHT22;3199;49.102;8.856;2023-04-15T07:50:51;19.10;57.50
6333;DHT22;3199;49.102;8.856;2023-04-15T07:53:17;18.50;58.80
6333;DHT22;3199;49.102;8.856;2023-04-15T07:55:42;18.00;60.00
6333;DHT22;3199;49.102;8.856;2023-04-15T07:58:08;17.60;61.20
6333;DHT22;3199;49.102;8.856;2023-04-15T08:00:33;17.30;63.10
6333;DHT22;3199;49.102;8.856;2023-04-15T08:02:59;17.00;63.00
6333;DHT22;3199;49.102;8.856;2023-04-15T08:05:24;16.80;64.30
6333;DHT22;3199;49.102;8.856;2023-04-15T08:07:50;16.60;65.10
6333;DHT22;3199;49.102;8.856;2023-04-15T08:10:16;16.80;66.50
6333;DHT22;3199;49.102;8.856;2023-04-15T08:12:41;17.30;66.80
6333;DHT22;3199;49.102;8.856;2023-04-15T08:15:07;18.10;67.30
6333;DHT22;3199;49.102;8.856;2023-04-15T08:17:33;18.90;66.60
6333;DHT22;3199;49.102;8.856;2023-04-15T08:19:59;19.70;64.10
6333;DHT22;3199;49.102;8.856;2023-04-15T08:22:24;20.30;60.90
6333;DHT22;3199;49.102;8.856;2023-04-15T08:24:50;20.50;59.70
6333;DHT22;3199;49.102;8.856;2023-04-15T08:27:15;20.70;60.70
6333;DHT22;3199;49.102;8.856;2023-04-15T08:29:41;21.10;59.20
6333;DHT22;3199;49.102;8.856;2023-04-15T08:32:07;21.30;58.30
6333;DHT22;3199;49.102;8.856;2023-04-15T08:34:34;20.90;57.50
6333;DHT22;3199;49.102;8.856;2023-04-15T08:36:59;20.80;58.40
6333;DHT22;3199;49.102;8.856;2023-04-15T08:39:25;20.80;59.30
6333;DHT22;3199;49.102;8.856;2023-04-15T08:41:59;20.90;59.90
6333;DHT22;3199;49.102;8.856;2023-04-15T08:44:28;20.50;59.40
6333;DHT22;3199;49.102;8.856;2023-04-15T08:46:55;20.50;60.00
6333;DHT22;3199;49.102;8.856;2023-04-15T08:49:25;20.60;60.00
6333;DHT22;3199;49.102;8.856;2023-04-15T08:51:51;20.70;61.10
6333;DHT22;3199;49.102;8.856;2023-04-15T08:54:18;20.50;59.80
6333;DHT22;3199;49.102;8.856;2023-04-15T08:56:43;20.50;61.20
6333;DHT22;3199;49.102;8.856;2023-04-15T08:59:09;20.50;62.20
6333;DHT22;3199;49.102;8.856;2023-04-15T09:01:36;20.60;61.90
6333;DHT22;3199;49.102;8.856;2023-04-15T09:04:03;20.30;60.30
6333;DHT22;3199;49.102;8.856;2023-04-15T09:06:32;20.40;59.40
6333;DHT22;3199;49.102;8.856;2023-04-15T09:08:57;20.00;61.70
6333;DHT22;3199;49.102;8.856;2023-04-15T09:11:23;19.80;61.90
6333;DHT22;3199;49.102;8.856;2023-04-15T09:13:49;20.00;62.80
6333;DHT22;3199;49.102;8.856;2023-04-15T09:16:14;20.60;60.00
6333;DHT22;3199;49.102;8.856;2023-04-15T09:18:40;20.60;59.70
6333;DHT22;3199;49.102;8.856;2023-04-15T09:21:07;21.10;57.70
6333;DHT22;3199;49.102;8.856;2023-04-15T09:23:37;21.30;56.40
6333;DHT22;3199;49.102;8.856;2023-04-15T09:26:03;21.50;56.60
6333;DHT22;3199;49.102;8.856;2023-04-15T09:28:29;21.60;55.80
6333;DHT22;3199;49.102;8.856;2023-04-15T09:31:00;21.50;55.30
6333;DHT22;3199;49.102;8.856;2023-04-15T09:33:26;21.50;54.40
6333;DHT22;3199;49.102;8.856;2023-04-15T09:36:03;21.50;55.10
6333;DHT22;3199;49.102;8.856;2023-04-15T09:38:29;21.50;54.90
6333;DHT22;3199;49.102;8.856;2023-04-15T09:40:56;21.40;54.80
6333;DHT22;3199;49.102;8.856;2023-04-15T09:43:22;21.30;55.00
6333;DHT22;3199;49.102;8.856;2023-04-15T09:46:01;20.90;55.60
6333;DHT22;3199;49.102;8.856;2023-04-15T09:48:27;20.30;56.00
6333;DHT22;3199;49.102;8.856;2023-04-15T09:50:57;20.00;56.10
6333;DHT22;3199;49.102;8.856;2023-04-15T09:53:23;19.70;56.40
6333;DHT22;3199;49.102;8.856;2023-04-15T09:55:54;19.60;56.70
6333;DHT22;3199;49.102;8.856;2023-04-15T09:58:27;19.60;56.30
6333;DHT22;3199;49.102;8.856;2023-04-15T10:00:54;19.40;56.80
6333;DHT22;3199;49.102;8.856;2023-04-15T10:03:28;19.30;55.90
6333;DHT22;3199;49.102;8.856;2023-04-15T10:05:55;19.30;57.10
6333;DHT22;3199;49.102;8.856;2023-04-15T10:08:23;19.20;56.70
6333;DHT22;3199;49.102;8.856;2023-04-15T10:10:49;19.40;56.70
6333;DHT22;3199;49.102;8.856;2023-04-15T10:13:26;19.40;56.70
6333;DHT22;3199;49.102;8.856;2023-04-15T10:16:28;19.60;56.70
6333;DHT22;3199;49.102;8.856;2023-04-15T10:18:55;19.90;55.00
6333;DHT22;3199;49.102;8.856;2023-04-15T10:21:21;20.00;56.60
6333;DHT22;3199;49.102;8.856;2023-04-15T10:23:48;20.00;55.90
6333;DHT22;3199;49.102;8.856;2023-04-15T10:26:14;19.90;55.10
6333;DHT22;3199;49.102;8.856;2023-04-15T10:28:41;20.20;54.40
6333;DHT22;3199;49.102;8.856;2023-04-15T10:31:08;20.50;54.40
6333;DHT22;3199;49.102;8.856;2023-04-15T10:33:35;20.60;53.80
6333;DHT22;3199;49.102;8.856;2023-04-15T10:36:03;20.50;54.20
6333;DHT22;3199;49.102;8.856;2023-04-15T10:38:40;20.40;55.20
6333;DHT22;3199;49.102;8.856;2023-04-15T10:41:26;20.60;55.30
6333;DHT22;3199;49.102;8.856;2023-04-15T10:44:04;20.70;53.40
6333;DHT22;3199;49.102;8.856;2023-04-15T10:46:41;20.60;52.50
6333;DHT22;3199;49.102;8.856;2023-04-15T10:49:19;20.60;52.50
6333;DHT22;3199;49.102;8.856;2023-04-15T10:51:54;20.50;52.50
6333;DHT22;3199;49.102;8.856;2023-04-15T10:59:31;20.30;53.60
6333;DHT22;3199;49.102;8.856;2023-04-15T11:02:00;20.10;53.60
6333;DHT22;3199;49.102;8.856;2023-04-15T11:12:44;20.70;52.30
6333;DHT22;3199;49.102;8.856;2023-04-15T11:15:29;20.70;51.90
6333;DHT22;3199;49.102;8.856;2023-04-15T11:18:12;21.00;50.80
6333;DHT22;3199;49.102;8.856;2023-04-15T11:20:40;21.40;50.80
6333;DHT22;3199;49.102;8.856;2023-04-15T11:23:06;21.50;50.00
6333;DHT22;3199;49.102;8.856;2023-04-15T11:25:34;21.30;51.80
6333;DHT22;3199;49.102;8.856;2023-04-15T11:28:01;21.50;50.20
6333;DHT22;3199;49.102;8.856;2023-04-15T11:30:28;21.50;49.90
6333;DHT22;3199;49.102;8.856;2023-04-15T11:32:57;21.50;50.40
6333;DHT22;3199;49.102;8.856;2023-04-15T11:35:23;21.20;50.50
6333;DHT22;3199;49.102;8.856;2023-04-15T11:37:49;21.20;51.10
6333;DHT22;3199;49.102;8.856;2023-04-15T11:40:16;21.20;51.30
6333;DHT22;3199;49.102;8.856;2023-04-15T11:42:46;21.30;51.50
6333;DHT22;3199;49.102;8.856;2023-04-15T11:45:14;21.20;50.60
6333;DHT22;3199;49.102;8.856;2023-04-15T11:47:40;20.60;50.10
6333;DHT22;3199;49.102;8.856;2023-04-15T11:50:20;20.30;50.40
6333;DHT22;3199;49.102;8.856;2023-04-15T11:52:57;20.00;50.90
6333;DHT22;3199;49.102;8.856;2023-04-15T11:55:23;19.70;51.70
6333;DHT22;3199;49.102;8.856;2023-04-15T11:58:11;19.50;53.70
6333;DHT22;3199;49.102;8.856;2023-04-15T12:00:36;19.30;54.70
6333;DHT22;3199;49.102;8.856;2023-04-15T12:03:12;19.10;55.40
6333;DHT22;3199;49.102;8.856;2023-04-15T12:06:11;19.00;55.10
6333;DHT22;3199;49.102;8.856;2023-04-15T12:09:00;18.80;52.60
6333;DHT22;3199;49.102;8.856;2023-04-15T12:13:59;18.50;51.30
6333;DHT22;3199;49.102;8.856;2023-04-15T12:16:27;18.40;51.00
6333;DHT22;3199;49.102;8.856;2023-04-15T12:18:54;18.20;50.80
6333;DHT22;3199;49.102;8.856;2023-04-15T12:21:25;17.80;50.40
6333;DHT22;3199;49.102;8.856;2023-04-15T12:23:53;17.60;50.80
6333;DHT22;3199;49.102;8.856;2023-04-15T12:26:26;17.40;50.60
6333;DHT22;3199;49.102;8.856;2023-04-15T12:29:00;17.10;50.90
6333;DHT22;3199;49.102;8.856;2023-04-15T12:31:25;16.70;50.90
6333;DHT22;3199;49.102;8.856;2023-04-15T12:33:54;16.30;52.10
6333;DHT22;3199;49.102;8.856;2023-04-15T12:36:20;16.30;52.70
6333;DHT22;3199;49.102;8.856;2023-04-15T12:38:45;16.20;52.40
6333;DHT22;3199;49.102;8.856;2023-04-15T12:41:11;16.00;52.30
6333;DHT22;3199;49.102;8.856;2023-04-15T12:43:36;15.80;52.10
6333;DHT22;3199;49.102;8.856;2023-04-15T12:46:02;15.70;51.90
6333;DHT22;3199;49.102;8.856;2023-04-15T12:48:27;15.70;52.90
6333;DHT22;3199;49.102;8.856;2023-04-15T12:50:53;15.80;54.50
6333;DHT22;3199;49.102;8.856;2023-04-15T12:53:19;15.70;55.10
6333;DHT22;3199;49.102;8.856;2023-04-15T12:55:45;15.60;54.40
6333;DHT22;3199;49.102;8.856;2023-04-15T12:58:10;15.60;53.70
6333;DHT22;3199;49.102;8.856;2023-04-15T13:00:36;15.60;51.40
6333;DHT22;3199;49.102;8.856;2023-04-15T13:03:01;15.50;50.20
6333;DHT22;3199;49.102;8.856;2023-04-15T13:05:27;15.60;50.40
6333;DHT22;3199;49.102;8.856;2023-04-15T13:07:53;15.60;49.50
6333;DHT22;3199;49.102;8.856;2023-04-15T13:10:18;15.60;47.20
6333;DHT22;3199;49.102;8.856;2023-04-15T13:12:44;15.50;47.30
6333;DHT22;3199;49.102;8.856;2023-04-15T13:15:11;15.30;48.20
6333;DHT22;3199;49.102;8.856;2023-04-15T13:17:37;15.10;48.60
6333;DHT22;3199;49.102;8.856;2023-04-15T13:20:03;15.00;49.70
6333;DHT22;3199;49.102;8.856;2023-04-15T13:22:28;14.90;50.30
6333;DHT22;3199;49.102;8.856;2023-04-15T13:24:54;14.80;51.10
6333;DHT22;3199;49.102;8.856;2023-04-15T13:27:20;14.80;51.80
6333;DHT22;3199;49.102;8.856;2023-04-15T13:29:45;14.80;52.60
6333;DHT22;3199;49.102;8.856;2023-04-15T13:32:11;14.70;53.10
6333;DHT22;3199;49.102;8.856;2023-04-15T13:34:36;14.70;53.80
6333;DHT22;3199;49.102;8.856;2023-04-15T13:37:06;14.70;53.60
6333;DHT22;3199;49.102;8.856;2023-04-15T13:39:32;14.60;53.90
6333;DHT22;3199;49.102;8.856;2023-04-15T13:41:57;14.50;54.00
6333;DHT22;3199;49.102;8.856;2023-04-15T13:44:23;14.50;54.70
6333;DHT22;3199;49.102;8.856;2023-04-15T13:46:48;14.40;54.80
6333;DHT22;3199;49.102;8.856;2023-04-15T13:49:14;14.40;55.80
6333;DHT22;3199;49.102;8.856;2023-04-15T13:51:40;14.40;56.10
6333;DHT22;3199;49.102;8.856;2023-04-15T13:54:06;14.50;56.60
6333;DHT22;3199;49.102;8.856;2023-04-15T13:56:31;14.50;55.80
6333;DHT22;3199;49.102;8.856;2023-04-15T13:58:57;14.40;55.90
6333;DHT22;3199;49.102;8.856;2023-04-15T14:01:26;14.40;56.30
6333;DHT22;3199;49.102;8.856;2023-04-15T14:03:51;14.30;56.30
6333;DHT22;3199;49.102;8.856;2023-04-15T14:06:17;14.30;57.10
6333;DHT22;3199;49.102;8.856;2023-04-15T14:08:43;14.20;56.90
6333;DHT22;3199;49.102;8.856;2023-04-15T14:11:08;14.20;56.90
6333;DHT22;3199;49.102;8.856;2023-04-15T14:13:34;14.20;57.40
6333;DHT22;3199;49.102;8.856;2023-04-15T14:16:00;14.10;57.50
6333;DHT22;3199;49.102;8.856;2023-04-15T14:18:26;14.10;57.50
6333;DHT22;3199;49.102;8.856;2023-04-15T14:20:52;14.00;57.40
6333;DHT22;3199;49.102;8.856;2023-04-15T14:23:17;13.90;57.60
6333;DHT22;3199;49.102;8.856;2023-04-15T14:25:43;13.90;57.30
6333;DHT22;3199;49.102;8.856;2023-04-15T14:28:08;13.80;56.90
6333;DHT22;3199;49.102;8.856;2023-04-15T14:30:34;13.80;57.20
6333;DHT22;3199;49.102;8.856;2023-04-15T14:33:00;13.70;57.80
6333;DHT22;3199;49.102;8.856;2023-04-15T14:35:25;13.70;57.70
6333;DHT22;3199;49.102;8.856;2023-04-15T14:37:55;13.80;57.20
6333;DHT22;3199;49.102;8.856;2023-04-15T14:40:21;13.90;57.00
6333;DHT22;3199;49.102;8.856;2023-04-15T14:42:46;14.00;56.30
6333;DHT22;3199;49.102;8.856;2023-04-15T14:45:12;14.10;56.30
6333;DHT22;3199;49.102;8.856;2023-04-15T14:47:37;14.20;56.40
6333;DHT22;3199;49.102;8.856;2023-04-15T14:50:03;14.20;56.40
6333;DHT22;3199;49.102;8.856;2023-04-15T14:52:30;14.20;56.20
6333;DHT22;3199;49.102;8.856;2023-04-15T14:55:09;14.30;56.20
6333;DHT22;3199;49.102;8.856;2023-04-15T14:57:36;14.30;56.40
6333;DHT22;3199;49.102;8.856;2023-04-15T15:00:03;14.40;56.50
6333;DHT22;3199;49.102;8.856;2023-04-15T15:02:29;14.40;56.70
6333;DHT22;3199;49.102;8.856;2023-04-15T15:04:56;14.40;57.70
6333;DHT22;3199;49.102;8.856;2023-04-15T15:07:22;14.30;58.30
6333;DHT22;3199;49.102;8.856;2023-04-15T15:09:47;14.30;58.60
6333;DHT22;3199;49.102;8.856;2023-04-15T15:12:13;14.20;58.60
6333;DHT22;3199;49.102;8.856;2023-04-15T15:14:39;14.10;58.80
6333;DHT22;3199;49.102;8.856;2023-04-15T15:17:04;14.00;59.50
6333;DHT22;3199;49.102;8.856;2023-04-15T15:19:30;13.90;60.50
6333;DHT22;3199;49.102;8.856;2023-04-15T15:21:55;13.80;61.60
6333;DHT22;3199;49.102;8.856;2023-04-15T15:24:21;13.70;62.30
6333;DHT22;3199;49.102;8.856;2023-04-15T15:26:47;13.70;63.80
6333;DHT22;3199;49.102;8.856;2023-04-15T15:29:12;13.70;65.40
6333;DHT22;3199;49.102;8.856;2023-04-15T15:31:38;13.60;67.50
6333;DHT22;3199;49.102;8.856;2023-04-15T15:34:03;13.50;68.80
6333;DHT22;3199;49.102;8.856;2023-04-15T15:36:29;13.30;70.00
6333;DHT22;3199;49.102;8.856;2023-04-15T15:38:58;13.20;71.60
6333;DHT22;3199;49.102;8.856;2023-04-15T15:41:24;13.00;72.50
6333;DHT22;3199;49.102;8.856;2023-04-15T15:43:51;12.80;74.00
6333;DHT22;3199;49.102;8.856;2023-04-15T15:46:17;12.70;75.30
6333;DHT22;3199;49.102;8.856;2023-04-15T15:48:43;12.50;77.70
6333;DHT22;3199;49.102;8.856;2023-04-15T15:51:08;12.40;79.50
6333;DHT22;3199;49.102;8.856;2023-04-15T15:53:34;12.30;81.40
6333;DHT22;3199;49.102;8.856;2023-04-15T15:55:59;12.20;82.60
6333;DHT22;3199;49.102;8.856;2023-04-15T15:58:25;12.20;85.00
6333;DHT22;3199;49.102;8.856;2023-04-15T16:00:51;12.20;88.70
6333;DHT22;3199;49.102;8.856;2023-04-15T16:03:16;12.10;90.90
6333;DHT22;3199;49.102;8.856;2023-04-15T16:05:42;12.00;93.00
6333;DHT22;3199;49.102;8.856;2023-04-15T16:08:08;11.90;93.70
6333;DHT22;3199;49.102;8.856;2023-04-15T16:10:34;11.80;95.10
6333;DHT22;3199;49.102;8.856;2023-04-15T16:12:59;11.80;96.40
6333;DHT22;3199;49.102;8.856;2023-04-15T16:15:26;11.80;97.80
6333;DHT22;3199;49.102;8.856;2023-04-15T16:17:51;11.70;98.30
6333;DHT22;3199;49.102;8.856;2023-04-15T16:20:17;11.70;99.30